createdAt,value
2024-01-05T00:01:47.167Z,89.62
2024-01-05T00:04:17.047Z,89.96
2024-01-05T00:06:47.421Z,90.53
2024-01-05T00:09:18.503Z,89.79
2024-01-05T00:11:50.222Z,89.95
2024-01-05T00:14:34.095Z,90.24
2024-01-05T00:17:10.547Z,90.38
2024-01-05T00:19:40.130Z,90.07
2024-01-05T00:22:10.776Z,89.86
2024-01-05T00:24:41.693Z,90.13
2024-01-05T00:27:16.322Z,90.34
2024-01-05T00:29:49.642Z,89.95
2024-01-05T00:32:23.527Z,90.56
2024-01-05T00:34:53.491Z,90.43
2024-01-05T00:37:23.387Z,90.70
2024-01-05T00:39:54.955Z,90.42
2024-01-05T00:42:24.809Z,89.74
2024-01-05T00:45:05.953Z,90.42
2024-01-05T00:47:36.359Z,90.41
2024-01-05T00:50:11.894Z,90.71
2024-01-05T00:52:41.883Z,89.82
2024-01-05T00:55:12.379Z,90.69
2024-01-05T00:57:42.007Z,90.24
2024-01-05T01:00:15.128Z,90.14
2024-01-05T01:02:45.210Z,90.14
2024-01-05T01:05:15.518Z,90.46
2024-01-05T01:07:45.160Z,90.75
2024-01-05T01:10:14.855Z,89.98
2024-01-05T01:12:47.148Z,90.01
2024-01-05T01:15:19.461Z,90.21
2024-01-05T01:17:50.969Z,90.55
2024-01-05T01:20:20.480Z,90.23
2024-01-05T01:22:51.257Z,90.71
2024-01-05T01:25:36.981Z,90.32
2024-01-05T01:28:14.824Z,90.60
2024-01-05T01:30:48.956Z,90.61
2024-01-05T01:33:27.303Z,89.94
2024-01-05T01:35:57.713Z,90.43
2024-01-05T01:38:30.529Z,90.19
2024-01-05T01:41:05.757Z,90.49
2024-01-05T01:43:35.980Z,90.38
2024-01-05T01:46:08.325Z,90.48
2024-01-05T01:48:38.172Z,90.68
2024-01-05T01:51:09.216Z,90.16
2024-01-05T01:53:46.481Z,90.16
2024-01-05T01:56:16.920Z,90.16
2024-01-05T01:58:47.176Z,90.53
2024-01-05T02:01:26.871Z,90.34
2024-01-05T02:03:56.198Z,90.95
2024-01-05T02:06:34.777Z,90.43
2024-01-05T02:09:05.853Z,90.71
2024-01-05T02:11:36.330Z,90.74
2024-01-05T02:14:06.431Z,90.78
2024-01-05T02:16:38.149Z,90.07
2024-01-05T02:19:08.480Z,90.31
2024-01-05T02:21:45.514Z,90.65
2024-01-05T02:24:17.338Z,90.84
2024-01-05T02:26:48.165Z,90.41
2024-01-05T02:29:23.856Z,90.11
2024-01-05T02:31:53.603Z,90.63
2024-01-05T02:34:30.012Z,90.23
2024-01-05T02:37:01.469Z,91.00
2024-01-05T02:39:34.820Z,91.11
2024-01-05T02:42:04.842Z,91.04
2024-01-05T02:44:38.861Z,90.37
2024-01-05T02:47:12.057Z,90.44
2024-01-05T02:49:41.901Z,91.41
2024-01-05T02:52:12.195Z,91.30
2024-01-05T02:54:45.604Z,90.76
2024-01-05T02:57:15.190Z,91.67
2024-01-05T02:59:52.185Z,91.63
2024-01-05T03:02:22.067Z,91.05
2024-01-05T03:04:53.202Z,91.14
2024-01-05T03:07:25.139Z,91.61
2024-01-05T03:09:56.254Z,91.24
2024-01-05T03:12:29.380Z,91.92
2024-01-05T03:14:58.750Z,91.53
2024-01-05T03:17:30.876Z,91.32
2024-01-05T03:20:01.127Z,91.47
2024-01-05T03:22:32.375Z,91.67
2024-01-05T03:25:07.093Z,91.74
2024-01-05T03:27:38.146Z,92.14
2024-01-05T03:30:10.346Z,92.29
2024-01-05T03:32:40.653Z,92.03
2024-01-05T03:35:11.174Z,92.65
2024-01-05T03:37:41.227Z,92.00
2024-01-05T03:40:15.406Z,92.50
2024-01-05T03:42:45.445Z,92.78
2024-01-05T03:45:15.657Z,92.60
2024-01-05T03:47:45.848Z,92.59
2024-01-05T03:50:16.022Z,92.64
2024-01-05T03:52:45.989Z,92.71
2024-01-05T03:55:20.363Z,92.61
2024-01-05T03:57:50.661Z,92.26
2024-01-05T04:00:26.550Z,92.81
2024-01-05T04:03:09.960Z,92.28
2024-01-05T04:05:43.119Z,92.90
2024-01-05T04:08:13.094Z,92.90
2024-01-05T04:10:50.605Z,92.87
2024-01-05T04:13:20.653Z,92.91
2024-01-05T04:15:50.716Z,92.91
2024-01-05T04:18:20.678Z,92.48
2024-01-05T04:20:50.665Z,93.20
2024-01-05T04:23:19.990Z,93.15
2024-01-05T04:25:52.698Z,93.10
2024-01-05T04:28:27.787Z,93.53
2024-01-05T04:30:58.600Z,93.56
2024-01-05T04:33:28.992Z,93.32
2024-01-05T04:35:58.765Z,93.47
2024-01-05T04:38:32.773Z,93.19
2024-01-05T04:41:04.281Z,93.39
2024-01-05T04:43:34.965Z,93.04
2024-01-05T04:46:07.645Z,93.04
2024-01-05T04:48:42.739Z,93.16
2024-01-05T04:51:12.797Z,93.89
2024-01-05T04:53:42.393Z,93.33
2024-01-05T04:56:13.915Z,93.49
2024-01-05T04:58:44.646Z,93.98
2024-01-05T05:01:20.744Z,93.97
2024-01-05T05:03:51.843Z,94.24
2024-01-05T05:06:22.544Z,93.98
2024-01-05T05:09:03.810Z,94.18
2024-01-05T05:11:36.143Z,93.87
2024-01-05T05:14:06.151Z,94.47
2024-01-05T05:16:38.298Z,94.40
2024-01-05T05:19:07.877Z,93.53
2024-01-05T05:21:39.593Z,93.75
2024-01-05T05:24:09.016Z,93.58
2024-01-05T05:26:41.283Z,93.94
2024-01-05T05:29:10.749Z,94.46
2024-01-05T05:31:41.034Z,94.53
2024-01-05T05:34:12.263Z,93.85
2024-01-05T05:36:41.087Z,94.46
2024-01-05T05:39:11.088Z,93.82
2024-01-05T05:41:42.890Z,93.83
2024-01-05T05:44:12.491Z,93.87
2024-01-05T05:46:41.143Z,94.84
2024-01-05T05:49:11.689Z,94.39
2024-01-05T05:51:42.667Z,94.53
2024-01-05T05:54:13.467Z,93.95
2024-01-05T05:56:44.424Z,94.28
2024-01-05T05:59:21.841Z,94.62
2024-01-05T06:01:52.842Z,94.33
2024-01-05T06:04:26.628Z,94.54
2024-01-05T06:06:59.072Z,94.56
2024-01-05T06:09:30.928Z,94.07
2024-01-05T06:12:06.589Z,94.94
2024-01-05T06:14:39.526Z,94.19
2024-01-05T06:17:09.381Z,94.95
2024-01-05T06:19:47.445Z,94.74
2024-01-05T06:22:17.213Z,94.53
2024-01-05T06:24:48.144Z,94.18
2024-01-05T06:27:32.668Z,94.50
2024-01-05T06:30:06.493Z,95.05
2024-01-05T06:32:35.437Z,94.43
2024-01-05T06:35:05.615Z,94.41
2024-01-05T06:37:35.703Z,95.12
2024-01-05T06:40:09.642Z,95.17
2024-01-05T06:42:41.879Z,94.96
2024-01-05T06:45:12.543Z,94.68
2024-01-05T06:47:42.472Z,95.00
2024-01-05T06:50:13.628Z,94.98
2024-01-05T06:52:44.392Z,95.44
2024-01-05T06:55:15.453Z,95.47
2024-01-05T06:57:53.077Z,95.38
2024-01-05T07:00:24.563Z,94.90
2024-01-05T07:02:53.819Z,95.05
2024-01-05T07:05:29.917Z,95.27
2024-01-05T07:08:01.471Z,95.07
2024-01-05T07:10:31.605Z,95.08
2024-01-05T07:13:03.689Z,94.87
2024-01-05T07:15:34.265Z,95.69
2024-01-05T07:18:09.917Z,94.90
2024-01-05T07:20:41.138Z,95.72
2024-01-05T07:23:12.465Z,94.93
2024-01-05T07:28:27.159Z,95.51
2024-01-05T07:30:58.699Z,95.51
2024-01-05T07:33:28.157Z,95.83
2024-01-05T07:35:59.711Z,95.03
2024-01-05T07:38:29.949Z,94.99
2024-01-05T07:41:01.441Z,95.70
2024-01-05T07:43:34.327Z,95.68
2024-01-05T07:46:05.979Z,95.78
2024-01-05T07:48:34.980Z,95.22
2024-01-05T07:51:06.870Z,95.36
2024-01-05T07:53:36.605Z,95.32
2024-01-05T07:56:07.604Z,96.31
2024-01-05T07:58:38.407Z,95.57
2024-01-05T08:01:08.725Z,96.12
2024-01-05T08:03:40.805Z,95.88
2024-01-05T08:06:11.172Z,96.00
2024-01-05T08:08:52.058Z,95.75
2024-01-05T08:11:25.744Z,95.83
2024-01-05T08:14:00.474Z,95.60
2024-01-05T08:16:29.891Z,96.04
2024-01-05T08:18:59.746Z,96.00
2024-01-05T08:21:30.451Z,95.77
2024-01-05T08:24:01.983Z,96.00
2024-01-05T08:26:32.588Z,96.17
2024-01-05T08:29:06.128Z,96.20
2024-01-05T08:31:38.196Z,96.24
2024-01-05T08:34:10.481Z,96.03
2024-01-05T08:36:55.162Z,95.96
2024-01-05T08:39:27.845Z,96.15
2024-01-05T08:41:59.107Z,96.26
2024-01-05T08:44:30.927Z,96.16
2024-01-05T08:47:06.579Z,96.17
2024-01-05T08:49:39.105Z,96.33
2024-01-05T08:52:13.395Z,95.97
2024-01-05T08:54:45.836Z,96.47
2024-01-05T08:57:16.700Z,96.66
2024-01-05T08:59:54.223Z,96.22
2024-01-05T09:02:25.695Z,96.18
2024-01-05T09:05:04.336Z,96.26
2024-01-05T09:07:39.120Z,96.13
2024-01-05T09:10:13.320Z,96.68
2024-01-05T09:12:44.334Z,96.53
2024-01-05T09:15:18.380Z,96.28
2024-01-05T09:17:48.774Z,96.66
2024-01-05T09:20:18.275Z,96.63
2024-01-05T09:22:50.938Z,96.85
2024-01-05T09:25:21.521Z,96.30
2024-01-05T09:27:53.094Z,96.46
2024-01-05T09:30:25.463Z,96.77
2024-01-05T09:33:02.262Z,96.36
2024-01-05T09:35:32.489Z,96.59
2024-01-05T09:38:03.684Z,96.99
2024-01-05T09:40:33.766Z,96.93
2024-01-05T09:43:04.722Z,96.89
2024-01-05T09:45:38.681Z,96.74
2024-01-05T09:48:13.435Z,96.98
2024-01-05T09:50:45.550Z,97.15
2024-01-05T09:53:15.937Z,96.77
2024-01-05T09:55:51.848Z,96.93
2024-01-05T09:58:22.553Z,96.92
2024-01-05T10:00:56.659Z,96.99
2024-01-05T10:03:27.401Z,97.17
2024-01-05T10:05:57.913Z,97.20
2024-01-05T10:08:28.456Z,97.40
2024-01-05T10:11:00.112Z,97.17
2024-01-05T10:13:30.493Z,97.44
2024-01-05T10:16:04.166Z,97.51
2024-01-05T10:18:37.943Z,97.28
2024-01-05T10:21:21.050Z,97.19
2024-01-05T10:23:52.296Z,97.36
2024-01-05T10:26:21.504Z,97.03
2024-01-05T10:28:50.917Z,97.45
2024-01-05T10:31:21.123Z,97.53
2024-01-05T10:33:51.615Z,97.52
2024-01-05T10:36:24.156Z,97.51
2024-01-05T10:38:53.747Z,97.33
2024-01-05T10:41:23.343Z,97.62
2024-01-05T10:43:55.072Z,97.79
2024-01-05T10:46:26.516Z,97.73
2024-01-05T10:48:56.681Z,98.29
2024-01-05T10:51:25.902Z,97.76
2024-01-05T10:53:55.026Z,97.99
2024-01-05T10:56:24.637Z,97.60
2024-01-05T10:58:53.936Z,97.86
2024-01-05T11:01:24.250Z,98.19
2024-01-05T11:03:55.086Z,98.58
2024-01-05T11:06:24.120Z,97.65
2024-01-05T11:09:11.015Z,98.06
2024-01-05T11:11:54.754Z,98.25
2024-01-05T11:14:41.831Z,98.42
2024-01-05T11:17:49.178Z,98.35
2024-01-05T11:20:39.729Z,98.42
2024-01-05T11:23:10.963Z,98.03
2024-01-05T11:25:39.910Z,98.13
2024-01-05T11:28:08.694Z,98.10
2024-01-05T11:30:42.341Z,98.32
2024-01-05T11:33:46.929Z,98.28
2024-01-05T11:36:56.449Z,98.30
2024-01-05T11:39:45.313Z,98.14
2024-01-05T11:42:34.994Z,98.33
2024-01-05T11:45:06.458Z,98.66
2024-01-05T11:47:41.624Z,98.81
2024-01-05T11:50:41.714Z,98.91
2024-01-05T11:53:15.349Z,98.41
2024-01-05T11:55:51.633Z,98.81
2024-01-05T11:58:22.139Z,98.60
2024-01-05T12:00:53.063Z,98.73
2024-01-05T12:03:24.416Z,99.26
2024-01-05T12:05:57.868Z,98.80
2024-01-05T12:08:27.154Z,98.85
2024-01-05T12:10:57.148Z,98.53
2024-01-05T12:13:28.849Z,98.47
2024-01-05T12:16:01.874Z,98.88
2024-01-05T12:18:38.338Z,99.08
2024-01-05T12:21:11.373Z,98.70
2024-01-05T12:23:42.344Z,99.20
2024-01-05T12:26:12.057Z,98.24
2024-01-05T12:28:42.865Z,99.17
2024-01-05T12:31:13.054Z,98.98
2024-01-05T12:33:43.259Z,98.42
2024-01-05T12:36:25.564Z,98.95
2024-01-05T12:38:54.084Z,99.03
2024-01-05T12:41:24.127Z,98.65
2024-01-05T12:43:53.283Z,98.31
2024-01-05T12:46:24.771Z,99.13
2024-01-05T12:48:53.831Z,99.04
2024-01-05T12:51:24.477Z,99.26
2024-01-05T12:54:05.020Z,98.78
2024-01-05T12:56:34.237Z,99.91
2024-01-05T12:59:04.798Z,99.43
2024-01-05T13:01:33.739Z,99.65
2024-01-05T13:04:03.359Z,99.30
2024-01-05T13:06:33.823Z,99.18
2024-01-05T13:09:03.177Z,99.22
2024-01-05T13:11:31.828Z,99.14
2024-01-05T13:14:01.103Z,98.94
2024-01-05T13:16:31.779Z,99.25
2024-01-05T13:19:01.361Z,98.96
2024-01-05T13:21:32.351Z,98.91
2024-01-05T13:24:03.439Z,99.26
2024-01-05T13:26:32.209Z,99.48
2024-01-05T13:29:01.216Z,98.85
2024-01-05T13:34:00.083Z,99.20
2024-01-05T13:36:28.910Z,99.47
2024-01-05T13:38:57.989Z,99.30
2024-01-05T13:41:27.995Z,99.24
2024-01-05T13:43:56.850Z,99.09
2024-01-05T13:46:26.404Z,99.05
2024-01-05T13:48:55.385Z,98.86
2024-01-05T13:51:24.797Z,99.65
2024-01-05T13:53:54.607Z,99.22
2024-01-05T13:56:23.402Z,99.20
2024-01-05T13:58:56.672Z,98.81
2024-01-05T14:01:25.426Z,99.52
2024-01-05T14:03:54.387Z,99.52
2024-01-05T14:06:23.395Z,99.45
2024-01-05T14:08:52.161Z,99.61
2024-01-05T14:11:21.445Z,99.62
2024-01-05T14:13:52.280Z,99.57
2024-01-05T14:16:22.818Z,99.15
2024-01-05T14:18:51.990Z,99.67
2024-01-05T14:21:27.687Z,99.51
2024-01-05T14:23:56.534Z,99.50
2024-01-05T14:26:27.312Z,99.39
2024-01-05T14:28:56.170Z,99.55
2024-01-05T14:31:30.730Z,99.07
2024-01-05T14:34:00.290Z,99.18
2024-01-05T14:36:29.050Z,99.02
2024-01-05T14:38:57.885Z,99.73
2024-01-05T14:41:29.204Z,99.15
2024-01-05T14:43:58.428Z,99.02
2024-01-05T14:46:30.479Z,98.84
2024-01-05T14:48:59.601Z,98.90
2024-01-05T14:51:28.381Z,98.94
2024-01-05T14:53:57.038Z,98.71
2024-01-05T14:56:25.807Z,99.44
2024-01-05T14:58:54.559Z,99.07
2024-01-05T15:01:23.356Z,100.00
2024-01-05T15:03:53.638Z,98.85
2024-01-05T15:06:24.975Z,99.35
2024-01-05T15:08:53.578Z,99.61
2024-01-05T15:11:22.568Z,99.92
2024-01-05T15:13:51.446Z,99.95
2024-01-05T15:16:21.046Z,99.52
2024-01-05T15:18:50.016Z,99.04
2024-01-05T15:21:26.856Z,99.76
2024-01-05T15:23:55.695Z,99.84
2024-01-05T15:26:24.542Z,99.52
2024-01-05T15:28:53.195Z,99.59
2024-01-05T15:31:22.690Z,100.00
2024-01-05T15:33:54.301Z,99.87
2024-01-05T15:36:26.222Z,99.75
2024-01-05T15:38:55.183Z,99.75
2024-01-05T15:41:25.100Z,100.00
2024-01-05T15:43:57.196Z,99.97
2024-01-05T15:46:28.395Z,100.00
2024-01-05T15:48:59.198Z,100.00
2024-01-05T15:51:31.297Z,100.00
2024-01-05T15:54:01.480Z,99.49
2024-01-05T15:56:30.541Z,100.00
2024-01-05T15:58:58.996Z,99.51
2024-01-05T16:01:27.837Z,100.00
2024-01-05T16:03:56.818Z,99.71
2024-01-05T16:06:25.912Z,99.76
2024-01-05T16:08:56.227Z,99.70
2024-01-05T16:11:31.127Z,99.98
2024-01-05T16:14:00.022Z,99.67
2024-01-05T16:16:30.538Z,100.00
2024-01-05T16:19:01.961Z,100.00
2024-01-05T16:21:32.620Z,99.97
2024-01-05T16:24:04.777Z,99.72
2024-01-05T16:26:33.817Z,100.00
2024-01-05T16:29:02.562Z,100.00
2024-01-05T16:31:31.468Z,99.99
2024-01-05T16:34:00.697Z,100.00
2024-01-05T16:36:29.765Z,99.83
2024-01-05T16:38:58.576Z,100.00
2024-01-05T16:41:29.380Z,99.98
2024-01-05T16:43:59.887Z,99.89
2024-01-05T16:46:31.141Z,99.92
2024-01-05T16:48:59.849Z,99.90
2024-01-05T16:51:31.533Z,99.90
2024-01-05T16:54:01.169Z,100.00
2024-01-05T16:56:33.989Z,100.00
2024-01-05T16:59:03.228Z,100.00
2024-01-05T17:01:34.566Z,99.34
2024-01-05T17:04:08.121Z,99.66
2024-01-05T17:06:38.450Z,99.72
2024-01-05T17:09:07.643Z,99.58
2024-01-05T17:11:37.643Z,99.48
2024-01-05T17:14:06.132Z,99.81
2024-01-05T17:16:34.710Z,100.00
2024-01-05T17:19:03.342Z,99.63
2024-01-05T17:21:32.522Z,99.50
2024-01-05T17:24:01.228Z,99.80
2024-01-05T17:26:31.256Z,100.00
2024-01-05T17:29:04.411Z,99.61
2024-01-05T17:31:34.332Z,100.00
2024-01-05T17:34:03.261Z,99.81
2024-01-05T17:36:32.098Z,99.82
2024-01-05T17:39:02.404Z,99.96
2024-01-05T17:41:31.172Z,100.00
2024-01-05T17:44:01.813Z,99.94
2024-01-05T17:46:30.452Z,99.61
2024-01-05T17:49:00.042Z,99.81
2024-01-05T17:51:33.659Z,99.87
2024-01-05T17:54:02.437Z,99.76
2024-01-05T17:56:34.410Z,99.78
2024-01-05T17:59:05.082Z,99.81
2024-01-05T18:01:34.580Z,99.88
2024-01-05T18:04:03.237Z,99.70
2024-01-05T18:06:31.803Z,99.83
2024-01-05T18:09:01.618Z,99.87
2024-01-05T18:11:30.132Z,100.00
2024-01-05T18:13:59.946Z,99.72
2024-01-05T18:16:36.697Z,99.70
2024-01-05T18:19:06.054Z,99.43
2024-01-05T18:21:34.662Z,99.76
2024-01-05T18:24:05.269Z,99.45
2024-01-05T18:26:36.993Z,99.49
2024-01-05T18:29:17.120Z,99.51
2024-01-05T18:31:54.930Z,99.37
2024-01-05T18:34:24.938Z,99.54
2024-01-05T18:36:54.603Z,99.85
2024-01-05T18:39:23.417Z,99.46
2024-01-05T18:41:51.987Z,99.48
2024-01-05T18:44:20.758Z,100.00
2024-01-05T18:46:51.467Z,99.87
2024-01-05T18:49:24.730Z,99.82
2024-01-05T18:51:54.540Z,99.85
2024-01-05T18:54:23.275Z,99.43
2024-01-05T18:56:52.456Z,99.55
2024-01-05T18:59:21.264Z,99.43
2024-01-05T19:01:50.305Z,99.77
2024-01-05T19:04:19.157Z,99.80
2024-01-05T19:06:49.332Z,99.55
2024-01-05T19:09:18.379Z,99.57
2024-01-05T19:11:46.787Z,99.03
2024-01-05T19:14:15.657Z,99.38
2024-01-05T19:16:44.859Z,99.55
2024-01-05T19:19:16.900Z,99.36
2024-01-05T19:21:55.866Z,99.90
2024-01-05T19:24:27.014Z,99.70
2024-01-05T19:26:55.793Z,99.43
2024-01-05T19:29:25.509Z,99.90
2024-01-05T19:31:54.243Z,99.63
2024-01-05T19:34:22.994Z,99.85
2024-01-05T19:36:54.013Z,99.89
2024-01-05T19:39:23.008Z,99.54
2024-01-05T19:41:51.673Z,99.45
2024-01-05T19:44:21.863Z,99.41
2024-01-05T19:46:51.398Z,99.47
2024-01-05T19:49:20.693Z,99.35
2024-01-05T19:51:50.675Z,99.36
2024-01-05T19:54:21.175Z,99.56
2024-01-05T19:56:50.279Z,99.69
2024-01-05T19:59:20.950Z,99.65
2024-01-05T20:01:50.120Z,99.59
2024-01-05T20:04:19.966Z,99.56
2024-01-05T20:06:50.524Z,99.84
2024-01-05T20:09:21.168Z,99.35
2024-01-05T20:11:50.480Z,99.43
2024-01-05T20:14:20.467Z,99.36
2024-01-05T20:16:49.291Z,99.25
2024-01-05T20:19:18.351Z,99.46
2024-01-05T20:21:49.502Z,99.49
2024-01-05T20:24:22.438Z,99.80
2024-01-05T20:26:54.700Z,99.69
2024-01-05T20:29:23.316Z,99.56
2024-01-05T20:31:54.383Z,99.85
2024-01-05T20:34:26.640Z,98.96
2024-01-05T20:36:55.600Z,99.27
2024-01-05T20:39:26.688Z,99.27
2024-01-05T20:41:55.486Z,99.01
2024-01-05T20:44:25.418Z,99.01
2024-01-05T20:46:54.265Z,99.87
2024-01-05T20:49:22.851Z,100.00
2024-01-05T20:51:51.766Z,99.59
2024-01-05T20:54:20.831Z,99.59
2024-01-05T20:56:51.952Z,99.84
2024-01-05T20:59:20.642Z,99.58
2024-01-05T21:01:50.203Z,99.04
2024-01-05T21:04:19.796Z,99.59
2024-01-05T21:06:49.356Z,99.08
2024-01-05T21:09:18.198Z,99.74
2024-01-05T21:11:48.195Z,99.60
2024-01-05T21:14:18.201Z,99.77
2024-01-05T21:16:48.106Z,99.23
2024-01-05T21:19:18.057Z,99.37
2024-01-05T21:21:48.605Z,99.18
2024-01-05T21:24:18.096Z,99.12
2024-01-05T21:26:47.227Z,99.23
2024-01-05T21:29:17.301Z,99.70
2024-01-05T21:31:51.206Z,99.29
2024-01-05T21:34:20.908Z,99.13
2024-01-05T21:36:50.637Z,99.91
2024-01-05T21:39:19.387Z,99.37
2024-01-05T21:41:49.436Z,99.60
2024-01-05T21:44:20.102Z,99.79
2024-01-05T21:46:49.134Z,99.62
2024-01-05T21:49:17.764Z,99.59
2024-01-05T21:51:49.714Z,98.81
2024-01-05T21:54:18.530Z,99.02
2024-01-05T21:56:47.413Z,99.39
2024-01-05T21:59:16.617Z,98.77
2024-01-05T22:01:49.541Z,99.54
2024-01-05T22:04:18.295Z,99.49
2024-01-05T22:06:47.123Z,99.22
2024-01-05T22:09:17.482Z,99.46
2024-01-05T22:11:46.716Z,99.50
2024-01-05T22:14:16.932Z,99.46
2024-01-05T22:16:45.993Z,98.84
2024-01-05T22:19:16.169Z,99.06
2024-01-05T22:21:45.054Z,99.54
2024-01-05T22:24:16.826Z,99.26
2024-01-05T22:26:45.307Z,98.64
2024-01-05T22:29:15.803Z,98.58
2024-01-05T22:31:47.281Z,99.44
2024-01-05T22:34:18.166Z,99.34
2024-01-05T22:36:47.111Z,98.62
2024-01-05T22:39:16.132Z,99.33
2024-01-05T22:41:45.639Z,98.43
2024-01-05T22:44:14.671Z,98.94
2024-01-05T22:46:43.255Z,99.57
2024-01-05T22:49:11.990Z,98.26
2024-01-05T22:51:42.181Z,98.77
2024-01-05T22:54:10.924Z,98.87
2024-01-05T22:56:39.936Z,99.26
2024-01-05T22:59:08.629Z,99.23
2024-01-05T23:01:37.335Z,98.49
2024-01-05T23:04:06.761Z,98.69
2024-01-05T23:06:35.634Z,98.30
2024-01-05T23:09:05.994Z,98.61
2024-01-05T23:11:34.684Z,98.90
2024-01-05T23:14:03.382Z,98.48
2024-01-05T23:16:31.864Z,98.69
2024-01-05T23:19:00.931Z,98.99
2024-01-05T23:21:30.077Z,99.06
2024-01-05T23:23:58.754Z,98.96
2024-01-05T23:26:28.873Z,99.27
2024-01-05T23:28:57.757Z,99.18
2024-01-05T23:31:26.368Z,98.32
2024-01-05T23:34:04.846Z,98.94
2024-01-05T23:36:41.600Z,98.64
2024-01-05T23:39:11.300Z,98.98
2024-01-05T23:41:42.528Z,98.68
2024-01-05T23:44:11.823Z,98.70
2024-01-05T23:46:40.276Z,98.52
2024-01-05T23:49:08.951Z,99.22
2024-01-05T23:51:37.558Z,99.10
2024-01-05T23:54:06.540Z,98.18
2024-01-05T23:56:35.402Z,98.50
2024-01-05T23:59:05.625Z,98.79
